EDT,Max TemperatureF,Mean TemperatureF,Min TemperatureF,Max Dew PointF,MeanDew PointF,Min DewpointF,Max Humidity, Mean Humidity, Min Humidity, Max Sea Level PressureIn, Mean Sea Level PressureIn, Min Sea Level PressureIn, Max VisibilityMiles, Mean VisibilityMiles, Min VisibilityMiles, Max Wind SpeedMPH, Mean Wind SpeedMPH, Max Gust SpeedMPH,PrecipitationIn, CloudCover, Events, WindDirDegrees
2013-4-1,62,50,39,48,38,12,100,66,33,29.92,29.74,29.63,10,8,2,25,11,33,0.01,4,,272
2013-4-2,44,37,30,16,13,10,55,36,25,30.10,30.00,29.92,10,10,10,25,12,36,0.00,1,,285
2013-4-3,46,39,32,16,12,9,44,32,23,30.30,30.18,30.09,10,10,10,23,14,32,0.00,1,,294
2013-4-4,48,38,28,30,20,10,65,47,30,30.40,30.28,30.11,10,10,10,15,8,23,0.00,0,,237
2013-4-5,62,50,37,39,29,19,100,56,19,30.10,29.89,29.72,10,10,3,25,8,31,0.03,3,,311
2013-4-6,48,42,35,28,21,10,70,46,25,30.33,30.24,30.00,10,10,10,24,13,28,0.00,0,,290
2013-4-7,55,45,35,45,36,28,75,65,50,30.32,30.18,30.03,10,10,10,21,9,30,0.00,1,,192
2013-4-8,69,60,50,50,45,43,82,61,38,30.09,30.03,29.98,10,10,10,13,8,21,0.00,1,,203
2013-4-9,84,70,55,52,48,39,88,48,21,30.00,29.97,29.92,10,10,10,21,9,29,0.00,0,,247
2013-4-10,71,62,53,59,50,45,100,65,46,29.95,29.89,29.79,10,10,5,16,9,26,0.38,2,Thunderstorm,134
2013-4-11,60,53,46,61,52,43,100,91,77,30.01,29.93,29.77,10,8,1,18,8,23,0.03,6,,84
2013-4-12,46,44,42,45,43,41,100,97,81,29.99,29.81,29.69,10,4,1,23,16,36,1.14,8,,53
2013-4-13,57,49,41,45,41,34,100,79,44,29.99,29.88,29.73,10,10,5,18,8,24,0.12,5,,313
2013-4-14,60,51,42,45,36,25,100,61,29,30.21,30.07,29.98,10,10,8,25,6,36,0.00,2,,269
2013-4-15,51,48,44,43,35,30,93,63,47,30.38,30.32,30.21,10,10,10,14,8,20,0.00,3,,101
2013-4-16,64,55,46,54,50,43,93,80,68,30.37,30.28,30.15,10,10,10,18,9,25,0.00,3,,152
2013-4-17,66,58,51,55,47,39,94,66,42,30.30,30.20,30.12,10,10,9,15,7,16,0.00,3,,196
2013-4-18,57,50,44,57,47,39,100,82,62,30.35,30.27,30.10,10,9,0,15,6,21,0.00,6,,116
2013-4-19,73,64,55,64,60,54,100,85,69,30.10,29.87,29.69,10,10,1,23,12,33,0.01,6,,186
2013-4-20,64,56,48,63,35,25,94,56,31,30.29,29.98,29.70,10,10,7,20,13,29,0.24,3,,287
2013-4-21,50,44,37,30,24,19,70,47,34,30.62,30.52,30.30,10,10,10,17,10,24,0.00,0,,25
2013-4-22,46,42,37,39,34,30,81,68,53,30.63,30.57,30.47,10,10,10,23,12,29,0.00,5,,78
2013-4-23,50,46,41,43,39,34,100,81,70,30.46,30.28,30.11,10,9,2,20,13,26,0.00,7,,17
2013-4-24,64,50,37,52,45,36,93,76,52,30.11,29.99,29.86,10,10,10,15,7,22,0.00,0,,229
2013-4-25,62,54,46,54,35,23,88,51,23,30.28,30.15,29.90,10,10,10,22,11,31,0.00,2,,264
2013-4-26,64,53,42,37,34,27,76,49,24,30.40,30.36,30.28,10,10,10,15,6,21,0.00,0,,260
2013-4-27,62,53,44,36,31,27,71,44,27,30.43,30.38,30.31,10,10,10,13,6,16,0.00,0,,101
2013-4-28,66,54,42,46,35,23,81,50,21,30.34,30.28,30.23,10,10,10,15,6,21,0.00,0,,175
2013-4-29,55,52,50,52,48,46,94,84,72,30.25,30.21,30.18,10,10,5,14,7,18,0.03,8,,135
2013-4-30,59,54,48,48,43,34,94,70,44,30.34,30.27,30.19,10,10,8,16,9,22,0.00,4,,80